^^
Station Historical Data
 
Daily Summary for April 28, 2015 Units:  Metric    English   Both
« Previous Day
Next Day »
Daily Weekly Monthly Yearly Custom
  Current: High: Low: Average:
Temperature: 7.3 °C 12.1 °C 7.1 °C 9.5 °C
Dew Point: 6.2 °C 11.1 °C 6.1 °C 8.7 °C
Humidity: 93% 96% 93% 95%
Wind Speed: 4.8km/h 7.7km/h 0.0km/h 3.1km/h
Wind Gust: 14.5km/h 24.1km/h - -
WindWest - - West
Pressure: 1010.7 hPa 1010.7 hPa 1001.2 hPa -
Precipitation: 1.3 mm      
Historical Graphs
 
 
Tabular Data for April 28, 2015
Time Temperature Dew Point Pressure Wind Wind Speed Wind Gust Humidity Rainfall Rate (Hourly) solar Conditions
00:05 12.1 °C 11.0 °C 1001.2 hPa WNW 2.6 km/h 11.3 km/h 93% 0.0 mm 0 W/m2
00:10 12.1 °C 11.0 °C 1001.2 hPa WNW 1.0 km/h 4.8 km/h 93% 0.0 mm 0 W/m2
00:25 12.0 °C 11.1 °C 1001.2 hPa NW 1.1 km/h 4.8 km/h 94% 0.0 mm 0 W/m2
00:30 12.0 °C 11.1 °C 1001.2 hPa WNW 0.5 km/h 4.8 km/h 94% 0.3 mm 0 W/m2
00:35 11.9 °C 10.9 °C 1001.6 hPa Calm     94% 0.3 mm 0 W/m2
00:40 11.9 °C 10.9 °C 1001.6 hPa West 0.6 km/h 4.8 km/h 94% 0.3 mm 0 W/m2
00:45 11.8 °C 10.9 °C 1001.6 hPa West 0.2 km/h 4.8 km/h 94% 0.3 mm 0 W/m2
00:50 11.8 °C 10.9 °C 1001.6 hPa Calm     94% 0.3 mm 0 W/m2
00:55 11.8 °C 10.9 °C 1001.6 hPa West 0.3 km/h 4.8 km/h 94% 0.3 mm 0 W/m2
01:00 11.7 °C 10.8 °C 1001.9 hPa West 0.2 km/h 3.2 km/h 94% 0.3 mm 0 W/m2
01:05 11.7 °C 10.8 °C 1001.9 hPa West 1.1 km/h 6.4 km/h 94% 0.3 mm 0 W/m2
01:10 11.7 °C 10.8 °C 1001.9 hPa Calm     94% 0.5 mm 0 W/m2
01:15 11.7 °C 10.9 °C 1001.9 hPa West 0.2 km/h 3.2 km/h 95% 0.5 mm 0 W/m2
01:20 11.7 °C 10.9 °C 1001.9 hPa West 0.3 km/h 4.8 km/h 95% 0.5 mm 0 W/m2
01:25 11.7 °C 10.9 °C 1001.9 hPa West 0.2 km/h 3.2 km/h 95% 0.5 mm 0 W/m2
01:30 11.7 °C 10.9 °C 1002.3 hPa West 0.3 km/h 4.8 km/h 95% 0.3 mm 0 W/m2
01:35 11.7 °C 10.9 °C 1001.9 hPa West 0.6 km/h 4.8 km/h 95% 0.3 mm 0 W/m2
01:40 11.6 °C 10.8 °C 1001.9 hPa WNW 2.3 km/h 6.4 km/h 95% 0.3 mm 0 W/m2
01:45 11.6 °C 10.8 °C 1002.3 hPa WNW 0.3 km/h 4.8 km/h 95% 0.3 mm 0 W/m2
01:50 11.5 °C 10.7 °C 1002.3 hPa WNW 1.4 km/h 9.7 km/h 95% 0.3 mm 0 W/m2
01:55 11.4 °C 10.6 °C 1002.3 hPa WNW 0.6 km/h 4.8 km/h 95% 0.3 mm 0 W/m2
02:00 11.4 °C 10.6 °C 1002.3 hPa WNW 0.5 km/h 4.8 km/h 95% 0.3 mm 0 W/m2
02:05 11.3 °C 10.6 °C 1002.3 hPa WNW 1.4 km/h 8.0 km/h 95% 0.3 mm 0 W/m2
02:10 11.3 °C 10.6 °C 1002.3 hPa WNW 0.6 km/h 6.4 km/h 95% 0.0 mm 0 W/m2
02:15 11.2 °C 10.4 °C 1002.3 hPa West 2.4 km/h 11.3 km/h 95% 0.0 mm 0 W/m2
02:20 11.1 °C 10.3 °C 1002.3 hPa West 1.9 km/h 6.4 km/h 95% 0.3 mm 0 W/m2
02:25 11.1 °C 10.3 °C 1002.3 hPa WNW 3.2 km/h 11.3 km/h 95% 0.3 mm 0 W/m2
02:30 11.0 °C 10.2 °C 1002.3 hPa NNW 2.3 km/h 9.7 km/h 95% 0.3 mm 0 W/m2
02:35 11.0 °C 10.2 °C 1002.3 hPa WNW 2.6 km/h 12.9 km/h 95% 0.3 mm 0 W/m2
02:40 10.9 °C 10.1 °C 1002.3 hPa NW 1.1 km/h 6.4 km/h 95% 0.3 mm 0 W/m2
02:45 10.9 °C 10.1 °C 1002.3 hPa WNW 1.4 km/h 8.0 km/h 95% 0.3 mm 0 W/m2
02:50 10.9 °C 10.3 °C 1002.6 hPa WNW 1.9 km/h 8.0 km/h 96% 0.3 mm 0 W/m2
03:00 10.8 °C 10.1 °C 1002.6 hPa West 4.3 km/h 11.3 km/h 95% 0.3 mm 0 W/m2
03:05 10.8 °C 10.1 °C 1002.6 hPa West 3.1 km/h 14.5 km/h 95% 0.3 mm 0 W/m2
03:10 10.7 °C 10.1 °C 1002.6 hPa NW 5.0 km/h 14.5 km/h 96% 0.3 mm 0 W/m2
03:15 10.7 °C 10.1 °C 1002.6 hPa WNW 6.0 km/h 14.5 km/h 96% 0.3 mm 0 W/m2
03:20 10.7 °C 10.1 °C 1002.9 hPa NW 4.8 km/h 14.5 km/h 96% 0.0 mm 0 W/m2
03:25 10.6 °C 10.0 °C 1002.9 hPa WNW 6.3 km/h 11.3 km/h 96% 0.0 mm 0 W/m2
03:30 10.6 °C 10.0 °C 1002.9 hPa WNW 4.7 km/h 11.3 km/h 96% 0.0 mm 0 W/m2
03:35 10.5 °C 9.9 °C 1002.9 hPa WNW 4.8 km/h 12.9 km/h 96% 0.0 mm 0 W/m2
03:40 10.4 °C 9.8 °C 1002.9 hPa WNW 4.2 km/h 9.7 km/h 96% 0.0 mm 0 W/m2
03:45 10.4 °C 9.8 °C 1002.9 hPa WNW 4.8 km/h 11.3 km/h 96% 0.0 mm 0 W/m2
03:50 10.4 °C 9.8 °C 1002.9 hPa WNW 3.4 km/h 9.7 km/h 96% 0.3 mm 0 W/m2
03:55 10.3 °C 9.7 °C 1003.3 hPa WNW 3.1 km/h 8.0 km/h 96% 0.3 mm 0 W/m2
04:00 10.3 °C 9.7 °C 1003.3 hPa WNW 4.7 km/h 11.3 km/h 96% 0.3 mm 0 W/m2
04:05 10.3 °C 9.7 °C 1003.6 hPa WSW 4.3 km/h 12.9 km/h 96% 0.3 mm 0 W/m2
04:10 10.2 °C 9.6 °C 1003.6 hPa West 3.2 km/h 12.9 km/h 96% 0.3 mm 0 W/m2
04:15 10.1 °C 9.5 °C 1003.6 hPa WNW 4.2 km/h 11.3 km/h 96% 0.3 mm 0 W/m2
04:20 10.0 °C 9.4 °C 1003.6 hPa West 5.1 km/h 16.1 km/h 96% 0.3 mm 0 W/m2
04:25 9.9 °C 9.3 °C 1003.6 hPa WNW 4.0 km/h 11.3 km/h 96% 0.3 mm 0 W/m2
04:30 9.7 °C 8.9 °C 1003.9 hPa West 3.7 km/h 11.3 km/h 95% 0.3 mm 0 W/m2
04:35 9.6 °C 9.0 °C 1003.9 hPa NW 4.7 km/h 17.7 km/h 96% 0.3 mm 0 W/m2
04:40 9.4 °C 8.7 °C 1003.9 hPa WNW 3.5 km/h 16.1 km/h 95% 0.3 mm 0 W/m2
04:45 9.3 °C 8.6 °C 1003.9 hPa NNE 5.8 km/h 12.9 km/h 95% 0.3 mm 0 W/m2
04:50 9.1 °C 8.3 °C 1004.3 hPa WNW 6.0 km/h 16.1 km/h 95% 0.0 mm 0 W/m2
04:55 8.9 °C 8.2 °C 1004.6 hPa NW 3.9 km/h 11.3 km/h 95% 0.0 mm 0 W/m2
05:00 8.9 °C 8.2 °C 1004.6 hPa WNW 3.4 km/h 9.7 km/h 95% 0.0 mm 0 W/m2
05:05 8.7 °C 7.9 °C 1005.0 hPa WSW 4.0 km/h 14.5 km/h 95% 0.0 mm 0 W/m2
05:20 8.5 °C 7.7 °C 1005.0 hPa NW 2.6 km/h 9.7 km/h 95% 0.0 mm 0 W/m2
05:30 8.3 °C 7.6 °C 1005.6 hPa SW 2.7 km/h 17.7 km/h 95% 0.3 mm 0 W/m2
05:35 8.2 °C 7.4 °C 1005.6 hPa NNW 2.7 km/h 14.5 km/h 95% 0.3 mm 0 W/m2
05:40 8.1 °C 7.3 °C 1006.0 hPa WSW 6.0 km/h 19.3 km/h 95% 0.3 mm 0 W/m2
05:45 8.0 °C 7.1 °C 1006.3 hPa WSW 4.7 km/h 16.1 km/h 94% 0.3 mm 0 W/m2
05:50 7.9 °C 7.0 °C 1006.3 hPa WSW 7.7 km/h 22.5 km/h 94% 0.3 mm 0 W/m2
05:55 7.8 °C 6.9 °C 1006.7 hPa WSW 5.1 km/h 20.9 km/h 94% 0.3 mm 0 W/m2
06:00 7.7 °C 6.8 °C 1006.7 hPa WNW 6.9 km/h 24.1 km/h 94% 0.3 mm 0 W/m2
06:05 7.6 °C 6.7 °C 1007.0 hPa WSW 6.6 km/h 19.3 km/h 94% 0.3 mm 0 W/m2
06:10 7.5 °C 6.6 °C 1007.0 hPa WNW 4.7 km/h 14.5 km/h 94% 0.3 mm 0 W/m2
06:15 7.5 °C 6.6 °C 1007.0 hPa SW 3.7 km/h 16.1 km/h 94% 0.3 mm 0 W/m2
06:20 7.5 °C 6.6 °C 1007.3 hPa SW 2.1 km/h 12.9 km/h 94% 0.3 mm 0 W/m2
06:25 7.4 °C 6.5 °C 1007.3 hPa SW 5.8 km/h 19.3 km/h 94% 0.3 mm 0 W/m2
06:30 7.4 °C 6.5 °C 1007.7 hPa WNW 5.6 km/h 19.3 km/h 94% 0.0 mm 0 W/m2
06:35 7.4 °C 6.5 °C 1007.7 hPa WSW 4.8 km/h 12.9 km/h 94% 0.0 mm 0 W/m2
06:40 7.4 °C 6.5 °C 1007.7 hPa West 1.4 km/h 9.7 km/h 94% 0.0 mm 0 W/m2
06:45 7.4 °C 6.5 °C 1008.0 hPa West 3.7 km/h 16.1 km/h 94% 0.0 mm 5 W/m2
06:50 7.4 °C 6.5 °C 1008.0 hPa WSW 1.0 km/h 8.0 km/h 94% 0.0 mm 5 W/m2
06:55 7.5 °C 6.8 °C 1008.4 hPa West 1.6 km/h 8.0 km/h 95% 0.0 mm 7 W/m2
07:00 7.5 °C 6.8 °C 1008.4 hPa West 1.6 km/h 8.0 km/h 95% 0.0 mm 7 W/m2
07:05 7.5 °C 6.8 °C 1008.7 hPa WNW 3.9 km/h 12.9 km/h 95% 0.0 mm 7 W/m2
07:10 7.4 °C 6.5 °C 1008.7 hPa WSW 2.1 km/h 9.7 km/h 94% 0.0 mm 11 W/m2
07:15 7.4 °C 6.5 °C 1009.0 hPa West 3.9 km/h 12.9 km/h 94% 0.0 mm 11 W/m2
07:20 7.3 °C 6.4 °C 1009.0 hPa SW 3.7 km/h 22.5 km/h 94% 0.3 mm 12 W/m2
07:25 7.3 °C 6.4 °C 1009.4 hPa SW 5.5 km/h 20.9 km/h 94% 0.3 mm 12 W/m2
07:30 7.3 °C 6.4 °C 1009.4 hPa West 4.7 km/h 16.1 km/h 94% 0.3 mm 12 W/m2
07:35 7.2 °C 6.3 °C 1009.4 hPa WSW 5.0 km/h 22.5 km/h 94% 0.3 mm 16 W/m2
07:40 7.1 °C 6.1 °C 1009.7 hPa SW 5.0 km/h 16.1 km/h 93% 0.3 mm 21 W/m2
07:45 7.1 °C 6.1 °C 1009.7 hPa WSW 6.0 km/h 17.7 km/h 93% 0.3 mm 26 W/m2
07:50 7.1 °C 6.1 °C 1010.0 hPa WSW 6.0 km/h 16.1 km/h 93% 0.3 mm 28 W/m2
07:55 7.1 °C 6.1 °C 1010.0 hPa SW 3.5 km/h 12.9 km/h 93% 0.3 mm 26 W/m2
08:00 7.1 °C 6.2 °C 1010.4 hPa West 1.8 km/h 14.5 km/h 94% 0.3 mm 30 W/m2
08:05 7.1 °C 6.2 °C 1010.4 hPa WSW 2.6 km/h 11.3 km/h 94% 0.3 mm 32 W/m2
08:10 7.1 °C 6.2 °C 1010.4 hPa WSW 1.9 km/h 9.7 km/h 94% 0.3 mm 32 W/m2
08:15 7.2 °C 6.3 °C 1010.4 hPa WSW 1.4 km/h 8.0 km/h 94% 0.3 mm 33 W/m2
08:20 7.3 °C 6.4 °C 1010.7 hPa WNW 1.6 km/h 9.7 km/h 94% 0.0 mm 39 W/m2
08:25 7.3 °C 6.4 °C 1010.7 hPa West 2.6 km/h 9.7 km/h 94% 0.0 mm 37 W/m2
08:30 7.3 °C 6.4 °C 1010.7 hPa SW 3.4 km/h 14.5 km/h 94% 0.0 mm 42 W/m2
08:35 7.3 °C 6.4 °C 1010.7 hPa WSW 4.0 km/h 20.9 km/h 94% 0.0 mm 54 W/m2
08:40 7.3 °C 6.2 °C 1010.7 hPa West 4.8 km/h 14.5 km/h 93% 0.0 mm 63 W/m2
Tägerwilen, Thurgau, Switzerland
Compliments of Weather Underground